createdAt,value
2018-09-17T06:55:05.221Z,4.27
2018-09-17T06:57:34.972Z,3.45
2018-09-17T07:00:05.397Z,3.53
2018-09-17T07:02:35.199Z,3.60
2018-09-17T07:05:06.365Z,3.10
2018-09-17T07:07:36.236Z,3.33
2018-09-17T07:10:07.125Z,2.97
2018-09-17T07:12:37.937Z,3.57
2018-09-17T07:15:08.105Z,3.27
2018-09-17T07:17:38.802Z,3.23
2018-09-17T07:20:09.513Z,3.40
2018-09-17T07:22:39.949Z,3.17
2018-09-17T07:25:10.084Z,3.00
2018-09-17T07:27:39.428Z,3.13
2018-09-17T07:30:08.977Z,3.60
2018-09-17T07:32:39.096Z,3.70
2018-09-17T07:35:08.948Z,3.03
2018-09-17T07:37:38.810Z,3.73
2018-09-17T07:40:08.353Z,3.67
2018-09-17T07:42:37.992Z,3.37
2018-09-17T07:45:08.334Z,3.37
2018-09-17T07:47:38.744Z,3.13
2018-09-17T07:50:08.171Z,3.30
2018-09-17T07:52:37.842Z,3.70
2018-09-17T07:55:07.367Z,3.80
2018-09-17T07:57:36.720Z,3.27
2018-09-17T08:00:06.731Z,3.50
2018-09-17T08:02:36.656Z,2.87
2018-09-17T08:05:06.330Z,3.57
2018-09-17T08:07:35.609Z,3.63
2018-09-17T08:10:05.533Z,3.27
2018-09-17T08:12:35.465Z,4.23
2018-09-17T08:15:05.907Z,4.50
2018-09-17T08:17:35.804Z,3.37
2018-09-17T08:20:05.843Z,4.40
2018-09-17T08:22:35.081Z,3.63
2018-09-17T08:25:04.593Z,3.50
2018-09-17T08:27:34.446Z,3.57
2018-09-17T08:30:04.458Z,3.20
2018-09-17T08:32:34.701Z,3.67
2018-09-17T08:35:05.845Z,3.53
2018-09-17T08:37:35.070Z,3.60
2018-09-17T08:40:05.101Z,3.23
2018-09-17T08:42:34.793Z,2.60
2018-09-17T08:45:05.122Z,2.90
2018-09-17T08:47:34.495Z,3.00
2018-09-17T08:50:04.653Z,3.00
2018-09-17T08:52:33.756Z,3.90
2018-09-17T08:55:07.995Z,3.50
2018-09-17T08:57:43.475Z,3.00
2018-09-17T09:00:22.817Z,3.73
2018-09-17T09:02:56.950Z,2.73
2018-09-17T09:05:30.747Z,3.27
2018-09-17T09:08:00.446Z,3.33
2018-09-17T09:10:34.920Z,3.50
2018-09-17T09:13:08.886Z,3.00
2018-09-17T09:15:40.755Z,3.00
2018-09-17T09:18:10.662Z,2.83
2018-09-17T09:20:40.480Z,3.03
2018-09-17T09:23:10.253Z,3.23
2018-09-17T09:25:40.297Z,2.87
2018-09-17T09:28:10.165Z,3.07
2018-09-17T09:30:40.012Z,2.57
2018-09-17T09:33:09.556Z,2.93
2018-09-17T09:35:39.046Z,3.00
2018-09-17T09:38:09.088Z,3.00
2018-09-17T09:40:38.964Z,2.93
2018-09-17T09:43:08.757Z,2.70
2018-09-17T09:45:39.073Z,2.70
2018-09-17T09:48:08.906Z,2.60
2018-09-17T09:50:38.644Z,2.80
2018-09-17T09:53:08.816Z,2.73
2018-09-17T09:55:38.811Z,3.20
2018-09-17T09:58:08.526Z,3.07
2018-09-17T10:00:43.757Z,2.97
2018-09-17T10:03:17.553Z,2.67
2018-09-17T10:05:47.693Z,3.13
2018-09-17T10:08:16.994Z,2.80
2018-09-17T10:10:51.721Z,2.60
2018-09-17T11:05:14.469Z,2.03
2018-09-17T11:07:44.300Z,1.67
2018-09-17T11:10:14.169Z,1.90
2018-09-17T11:12:44.363Z,2.03
2018-09-17T11:15:14.443Z,1.67
2018-09-17T11:17:44.837Z,2.00
2018-09-17T11:20:14.715Z,2.40
2018-09-17T11:22:45.697Z,1.80
2018-09-17T11:25:16.153Z,2.00
2018-09-17T11:27:46.274Z,1.87
2018-09-17T11:30:16.250Z,1.63
2018-09-17T11:32:46.345Z,2.10
2018-09-17T11:35:16.537Z,2.30
2018-09-17T11:37:47.630Z,1.93
2018-09-17T11:40:18.073Z,2.27
2018-09-17T11:42:48.876Z,2.10
2018-09-17T11:45:19.910Z,2.17
2018-09-17T11:47:50.473Z,2.07
2018-09-17T11:50:21.047Z,2.30
2018-09-17T11:52:52.357Z,1.97
2018-09-17T11:55:22.678Z,1.93
2018-09-17T11:57:53.936Z,2.20
2018-09-17T12:00:28.660Z,2.10
2018-09-17T12:03:02.448Z,2.10
2018-09-17T12:05:36.577Z,2.30
2018-09-17T12:08:11.096Z,2.17
2018-09-17T12:10:41.415Z,2.43
2018-09-17T12:13:12.281Z,2.30
2018-09-17T12:15:43.697Z,1.97
2018-09-17T12:18:14.680Z,1.97
2018-09-17T12:20:49.004Z,2.15
2018-09-17T12:23:19.159Z,1.92
2018-09-17T12:25:49.953Z,2.12
2018-09-17T12:28:21.798Z,2.42
2018-09-17T12:30:51.690Z,2.03
2018-09-17T12:33:21.796Z,2.33
2018-09-17T12:35:52.243Z,1.90
2018-09-17T12:38:22.198Z,2.00
2018-09-17T12:40:52.038Z,2.37
2018-09-17T12:43:22.008Z,1.92
2018-09-17T12:45:51.874Z,2.40
2018-09-17T12:48:22.386Z,2.58
2018-09-17T12:50:52.720Z,2.55
2018-09-17T12:53:23.045Z,1.95
2018-09-17T12:55:53.076Z,2.00
2018-09-17T12:58:23.594Z,1.92
2018-09-17T13:00:53.650Z,1.90
2018-09-17T13:03:24.032Z,2.08
2018-09-17T13:05:54.310Z,1.90
2018-09-17T13:08:24.865Z,1.80
2018-09-17T13:10:55.027Z,1.67
2018-09-17T13:13:25.600Z,1.90
2018-09-17T13:15:56.460Z,2.10
2018-09-17T13:18:26.915Z,1.98
2018-09-17T13:20:57.348Z,1.87
2018-09-17T13:23:27.319Z,2.02
2018-09-17T13:25:57.552Z,2.12
2018-09-17T13:28:27.532Z,1.92
2018-09-17T13:30:57.438Z,1.80
2018-09-17T13:33:27.426Z,1.65
2018-09-17T13:35:57.300Z,2.05
2018-09-17T13:38:28.385Z,2.00
2018-09-17T13:40:58.291Z,2.02
2018-09-17T13:43:35.922Z,2.20
2018-09-17T13:46:05.710Z,1.87
2018-09-17T13:48:35.826Z,2.08
2018-09-17T13:51:05.487Z,2.00
2018-09-17T13:53:35.072Z,1.90
2018-09-17T13:56:05.427Z,1.80
2018-09-17T13:58:34.811Z,2.30
2018-09-17T14:01:04.272Z,1.82
2018-09-17T14:03:35.285Z,1.87
2018-09-17T14:06:05.075Z,1.85
2018-09-17T14:08:35.206Z,1.80
2018-09-17T14:11:04.971Z,1.85
2018-09-17T14:13:34.632Z,1.90
2018-09-17T14:16:07.172Z,2.02
2018-09-17T14:18:37.082Z,1.70
2018-09-17T14:21:07.767Z,1.80
2018-09-17T14:23:37.291Z,1.60
2018-09-17T14:26:06.928Z,1.98
2018-09-17T14:28:37.251Z,2.00
2018-09-17T14:31:06.608Z,1.72
2018-09-17T14:33:41.084Z,1.90
2018-09-17T14:36:11.913Z,1.82
2018-09-17T14:38:45.351Z,1.87
2018-09-17T14:41:15.132Z,1.60
2018-09-17T14:43:44.577Z,1.90
2018-09-17T14:46:14.221Z,1.57
2018-09-17T14:48:43.898Z,1.67
2018-09-17T14:51:13.679Z,1.67
2018-09-17T14:53:43.780Z,1.80
2018-09-17T14:56:15.797Z,1.70
2018-09-17T14:58:45.036Z,2.00
2018-09-17T15:01:15.256Z,1.75
